sensor_id;sensor_type;location;lat;lon;timestamp;pressure;altitude;pressure_sealevel;temperature;humidity
15670;BME280;18524;45.190;5.732;2024-02-14T00:03:25;99960.06;;;9.58;93.72
15670;BME280;18524;45.190;5.732;2024-02-14T00:08:16;99965.91;;;9.49;93.44
15670;BME280;18524;45.190;5.732;2024-02-14T00:13:07;99965.13;;;9.61;93.05
15670;BME280;18524;45.190;5.732;2024-02-14T00:17:59;99970.34;;;9.61;92.58
15670;BME280;18524;45.190;5.732;2024-02-14T00:22:49;99975.16;;;9.55;92.57
15670;BME280;18524;45.190;5.732;2024-02-14T00:27:39;99978.44;;;9.44;94.20
15670;BME280;18524;45.190;5.732;2024-02-14T00:32:30;99955.41;;;8.94;97.97
15670;BME280;18524;45.190;5.732;2024-02-14T00:37:21;99965.00;;;9.07;96.22
15670;BME280;18524;45.190;5.732;2024-02-14T00:42:11;99971.81;;;8.82;98.20
15670;BME280;18524;45.190;5.732;2024-02-14T00:47:02;99964.09;;;8.94;100.00
15670;BME280;18524;45.190;5.732;2024-02-14T00:51:52;99959.94;;;8.90;97.72
15670;BME280;18524;45.190;5.732;2024-02-14T00:56:42;99966.75;;;8.64;99.33
15670;BME280;18524;45.190;5.732;2024-02-14T01:01:33;99980.78;;;8.77;99.50
15670;BME280;18524;45.190;5.732;2024-02-14T01:06:24;99980.00;;;8.61;100.00
15670;BME280;18524;45.190;5.732;2024-02-14T01:11:14;99982.75;;;8.44;100.00
15670;BME280;18524;45.190;5.732;2024-02-14T01:16:05;99987.00;;;8.61;100.00
15670;BME280;18524;45.190;5.732;2024-02-14T01:20:56;99988.06;;;8.87;100.00
15670;BME280;18524;45.190;5.732;2024-02-14T01:25:48;99987.44;;;8.97;100.00
15670;BME280;18524;45.190;5.732;2024-02-14T01:30:40;99986.69;;;8.95;97.83
15670;BME280;18524;45.190;5.732;2024-02-14T01:35:31;99993.00;;;8.77;99.89
15670;BME280;18524;45.190;5.732;2024-02-14T01:40:21;100000.63;;;8.96;100.00
15670;BME280;18524;45.190;5.732;2024-02-14T01:45:13;99992.34;;;8.88;99.61
15670;BME280;18524;45.190;5.732;2024-02-14T01:50:04;99996.59;;;9.04;99.76
15670;BME280;18524;45.190;5.732;2024-02-14T01:54:55;100005.69;;;8.69;100.00
15670;BME280;18524;45.190;5.732;2024-02-14T01:59:47;100015.03;;;8.59;100.00
15670;BME280;18524;45.190;5.732;2024-02-14T02:04:39;100017.03;;;8.54;100.00
15670;BME280;18524;45.190;5.732;2024-02-14T02:09:29;100004.78;;;8.40;100.00
15670;BME280;18524;45.190;5.732;2024-02-14T02:14:21;100007.38;;;8.56;100.00
15670;BME280;18524;45.190;5.732;2024-02-14T02:19:12;99998.16;;;8.49;100.00
15670;BME280;18524;45.190;5.732;2024-02-14T02:24:02;99995.81;;;8.44;100.00
15670;BME280;18524;45.190;5.732;2024-02-14T02:28:53;99989.44;;;8.34;100.00
15670;BME280;18524;45.190;5.732;2024-02-14T02:33:43;99988.78;;;8.60;100.00
15670;BME280;18524;45.190;5.732;2024-02-14T02:38:34;99993.94;;;8.62;100.00
15670;BME280;18524;45.190;5.732;2024-02-14T02:43:24;99993.47;;;8.84;100.00
15670;BME280;18524;45.190;5.732;2024-02-14T02:48:14;99993.19;;;8.60;100.00
15670;BME280;18524;45.190;5.732;2024-02-14T02:53:05;99990.56;;;8.60;100.00
15670;BME280;18524;45.190;5.732;2024-02-14T02:57:56;99982.09;;;8.40;100.00
15670;BME280;18524;45.190;5.732;2024-02-14T03:02:46;99976.28;;;8.35;100.00
15670;BME280;18524;45.190;5.732;2024-02-14T03:07:37;99984.81;;;8.53;100.00
15670;BME280;18524;45.190;5.732;2024-02-14T03:12:28;99978.59;;;8.56;100.00
15670;BME280;18524;45.190;5.732;2024-02-14T03:17:20;99973.28;;;8.71;100.00
15670;BME280;18524;45.190;5.732;2024-02-14T03:22:11;99967.69;;;8.77;100.00
15670;BME280;18524;45.190;5.732;2024-02-14T03:27:01;99964.41;;;8.60;100.00
15670;BME280;18524;45.190;5.732;2024-02-14T03:31:51;99979.06;;;8.32;100.00
15670;BME280;18524;45.190;5.732;2024-02-14T03:36:42;99982.47;;;8.49;100.00
15670;BME280;18524;45.190;5.732;2024-02-14T03:41:33;99973.22;;;8.43;100.00
15670;BME280;18524;45.190;5.732;2024-02-14T03:46:23;99972.59;;;8.24;100.00
15670;BME280;18524;45.190;5.732;2024-02-14T03:51:14;99982.19;;;8.39;100.00
15670;BME280;18524;45.190;5.732;2024-02-14T03:56:05;99974.88;;;8.14;100.00
15670;BME280;18524;45.190;5.732;2024-02-14T04:00:57;99968.59;;;8.02;100.00
15670;BME280;18524;45.190;5.732;2024-02-14T04:05:47;99994.84;;;8.15;100.00
15670;BME280;18524;45.190;5.732;2024-02-14T04:10:39;99987.69;;;8.34;100.00
15670;BME280;18524;45.190;5.732;2024-02-14T04:15:29;99976.22;;;8.51;100.00
15670;BME280;18524;45.190;5.732;2024-02-14T04:20:19;99967.53;;;8.36;99.54
15670;BME280;18524;45.190;5.732;2024-02-14T04:25:10;99978.81;;;8.37;100.00
15670;BME280;18524;45.190;5.732;2024-02-14T04:30:01;99981.03;;;8.59;100.00
15670;BME280;18524;45.190;5.732;2024-02-14T04:34:52;99981.06;;;8.73;97.25
15670;BME280;18524;45.190;5.732;2024-02-14T04:39:42;99976.19;;;8.67;92.94
15670;BME280;18524;45.190;5.732;2024-02-14T04:44:33;99976.78;;;8.42;92.66
15670;BME280;18524;45.190;5.732;2024-02-14T04:49:25;99982.47;;;8.49;91.89
15670;BME280;18524;45.190;5.732;2024-02-14T04:54:15;99974.69;;;8.63;92.95
15670;BME280;18524;45.190;5.732;2024-02-14T04:59:06;99967.16;;;8.42;90.68
15670;BME280;18524;45.190;5.732;2024-02-14T05:03:58;99969.50;;;8.47;96.56
15670;BME280;18524;45.190;5.732;2024-02-14T05:08:49;99981.72;;;8.01;100.00
15670;BME280;18524;45.190;5.732;2024-02-14T05:13:41;99983.06;;;8.08;100.00
15670;BME280;18524;45.190;5.732;2024-02-14T05:18:32;99991.69;;;7.94;100.00
15670;BME280;18524;45.190;5.732;2024-02-14T05:23:22;99985.28;;;8.00;100.00
15670;BME280;18524;45.190;5.732;2024-02-14T05:28:12;100003.06;;;7.93;100.00
15670;BME280;18524;45.190;5.732;2024-02-14T05:33:04;100014.13;;;7.82;100.00
15670;BME280;18524;45.190;5.732;2024-02-14T05:37:55;100022.69;;;7.69;100.00
15670;BME280;18524;45.190;5.732;2024-02-14T05:42:45;100006.00;;;7.71;100.00
15670;BME280;18524;45.190;5.732;2024-02-14T05:47:36;100011.84;;;7.28;100.00
15670;BME280;18524;45.190;5.732;2024-02-14T05:52:27;100033.38;;;7.15;100.00
15670;BME280;18524;45.190;5.732;2024-02-14T05:57:17;100029.97;;;7.31;100.00
15670;BME280;18524;45.190;5.732;2024-02-14T06:02:08;100029.38;;;7.41;100.00
15670;BME280;18524;45.190;5.732;2024-02-14T06:07:00;100032.81;;;7.42;100.00
15670;BME280;18524;45.190;5.732;2024-02-14T06:11:50;100031.00;;;7.44;100.00
15670;BME280;18524;45.190;5.732;2024-02-14T06:16:40;100049.03;;;7.48;100.00
15670;BME280;18524;45.190;5.732;2024-02-14T06:21:31;100057.31;;;7.88;100.00
15670;BME280;18524;45.190;5.732;2024-02-14T06:26:22;100055.63;;;7.87;100.00
15670;BME280;18524;45.190;5.732;2024-02-14T06:31:13;100043.56;;;7.69;100.00
15670;BME280;18524;45.190;5.732;2024-02-14T06:36:04;100049.88;;;7.49;100.00
15670;BME280;18524;45.190;5.732;2024-02-14T06:40:54;100056.03;;;7.64;100.00
15670;BME280;18524;45.190;5.732;2024-02-14T06:45:45;100053.25;;;7.51;100.00
15670;BME280;18524;45.190;5.732;2024-02-14T06:50:35;100067.22;;;7.50;100.00
15670;BME280;18524;45.190;5.732;2024-02-14T06:55:26;100063.69;;;7.51;100.00
15670;BME280;18524;45.190;5.732;2024-02-14T07:00:17;100062.63;;;7.38;100.00
15670;BME280;18524;45.190;5.732;2024-02-14T07:05:08;100059.78;;;7.42;100.00
15670;BME280;18524;45.190;5.732;2024-02-14T07:10:02;100050.13;;;7.60;100.00
15670;BME280;18524;45.190;5.732;2024-02-14T07:14:53;100046.44;;;7.48;100.00
15670;BME280;18524;45.190;5.732;2024-02-14T07:19:43;100050.56;;;7.68;100.00
15670;BME280;18524;45.190;5.732;2024-02-14T07:24:37;100034.31;;;7.95;100.00
15670;BME280;18524;45.190;5.732;2024-02-14T07:29:28;100032.97;;;8.03;100.00
15670;BME280;18524;45.190;5.732;2024-02-14T07:34:18;100036.56;;;8.32;94.99
15670;BME280;18524;45.190;5.732;2024-02-14T07:39:08;100035.00;;;8.60;87.13
15670;BME280;18524;45.190;5.732;2024-02-14T07:43:59;100039.78;;;8.67;84.09
15670;BME280;18524;45.190;5.732;2024-02-14T07:48:49;100029.03;;;9.02;80.19
15670;BME280;18524;45.190;5.732;2024-02-14T07:53:40;100043.31;;;8.96;78.54
15670;BME280;18524;45.190;5.732;2024-02-14T07:58:30;100039.41;;;9.03;77.55
15670;BME280;18524;45.190;5.732;2024-02-14T08:03:20;100032.66;;;9.28;77.30
15670;BME280;18524;45.190;5.732;2024-02-14T08:08:11;100035.75;;;9.49;75.66
15670;BME280;18524;45.190;5.732;2024-02-14T08:13:01;100032.78;;;9.96;77.23
15670;BME280;18524;45.190;5.732;2024-02-14T08:17:54;100048.75;;;10.47;72.10
15670;BME280;18524;45.190;5.732;2024-02-14T08:22:46;100046.00;;;10.88;68.14
15670;BME280;18524;45.190;5.732;2024-02-14T08:27:36;100033.63;;;11.03;64.54
15670;BME280;18524;45.190;5.732;2024-02-14T08:32:27;100032.38;;;11.21;62.95
15670;BME280;18524;45.190;5.732;2024-02-14T08:37:17;100028.38;;;11.28;63.23
15670;BME280;18524;45.190;5.732;2024-02-14T08:42:07;100044.72;;;11.44;60.80
15670;BME280;18524;45.190;5.732;2024-02-14T08:46:58;100046.31;;;11.59;59.26
15670;BME280;18524;45.190;5.732;2024-02-14T08:51:48;100034.50;;;11.78;59.92
15670;BME280;18524;45.190;5.732;2024-02-14T08:56:40;100045.31;;;11.86;58.91
15670;BME280;18524;45.190;5.732;2024-02-14T09:01:30;100034.50;;;11.78;59.34
15670;BME280;18524;45.190;5.732;2024-02-14T09:06:21;100028.06;;;12.18;58.83
15670;BME280;18524;45.190;5.732;2024-02-14T09:11:11;100024.88;;;12.61;57.93
15670;BME280;18524;45.190;5.732;2024-02-14T09:16:04;100021.44;;;13.07;57.97
15670;BME280;18524;45.190;5.732;2024-02-14T09:20:56;100022.75;;;13.01;60.66
15670;BME280;18524;45.190;5.732;2024-02-14T09:25:46;100022.66;;;13.36;60.48
15670;BME280;18524;45.190;5.732;2024-02-14T09:30:37;100015.00;;;13.22;58.20
15670;BME280;18524;45.190;5.732;2024-02-14T09:35:27;99999.63;;;13.83;58.03
15670;BME280;18524;45.190;5.732;2024-02-14T09:40:18;99996.19;;;14.15;55.51
15670;BME280;18524;45.190;5.732;2024-02-14T09:45:08;99995.31;;;13.71;55.22
15670;BME280;18524;45.190;5.732;2024-02-14T09:50:01;99987.09;;;14.07;54.79
15670;BME280;18524;45.190;5.732;2024-02-14T09:54:53;99988.16;;;14.05;55.75
15670;BME280;18524;45.190;5.732;2024-02-14T09:59:45;99992.22;;;14.52;55.99
15670;BME280;18524;45.190;5.732;2024-02-14T10:04:36;100013.84;;;14.35;49.74
15670;BME280;18524;45.190;5.732;2024-02-14T10:09:28;100013.88;;;14.88;52.15
15670;BME280;18524;45.190;5.732;2024-02-14T10:14:18;100006.13;;;14.75;50.91
15670;BME280;18524;45.190;5.732;2024-02-14T10:19:18;99999.88;;;14.97;49.79
15670;BME280;18524;45.190;5.732;2024-02-14T10:24:09;100011.78;;;15.12;50.82
15670;BME280;18524;45.190;5.732;2024-02-14T10:29:02;100022.75;;;15.38;48.10
15670;BME280;18524;45.190;5.732;2024-02-14T10:33:54;100010.56;;;15.87;48.00
15670;BME280;18524;45.190;5.732;2024-02-14T10:38:46;99993.44;;;15.91;47.69
15670;BME280;18524;45.190;5.732;2024-02-14T10:43:40;99998.50;;;16.04;46.49
15670;BME280;18524;45.190;5.732;2024-02-14T10:48:31;99984.84;;;16.18;46.01
15670;BME280;18524;45.190;5.732;2024-02-14T10:53:25;99988.63;;;16.44;45.46
15670;BME280;18524;45.190;5.732;2024-02-14T10:58:18;99998.72;;;16.97;44.05
15670;BME280;18524;45.190;5.732;2024-02-14T11:03:09;99998.22;;;16.55;42.89
15670;BME280;18524;45.190;5.732;2024-02-14T11:08:08;99983.19;;;16.75;41.88
15670;BME280;18524;45.190;5.732;2024-02-14T11:12:59;99983.97;;;16.95;42.00
15670;BME280;18524;45.190;5.732;2024-02-14T11:18:04;99978.44;;;16.78;40.12
15670;BME280;18524;45.190;5.732;2024-02-14T11:22:57;99986.56;;;17.14;39.59
15670;BME280;18524;45.190;5.732;2024-02-14T11:27:48;99973.59;;;17.75;39.29
15670;BME280;18524;45.190;5.732;2024-02-14T11:32:39;99973.88;;;18.35;36.31
15670;BME280;18524;45.190;5.732;2024-02-14T11:37:32;99965.19;;;18.95;36.85
15670;BME280;18524;45.190;5.732;2024-02-14T11:42:22;99945.88;;;19.53;34.87
15670;BME280;18524;45.190;5.732;2024-02-14T11:47:12;99941.69;;;19.50;32.45
15670;BME280;18524;45.190;5.732;2024-02-14T11:52:03;99932.09;;;19.57;33.12
15670;BME280;18524;45.190;5.732;2024-02-14T11:56:54;99939.06;;;18.90;34.15
15670;BME280;18524;45.190;5.732;2024-02-14T12:01:45;99937.47;;;18.71;34.99
15670;BME280;18524;45.190;5.732;2024-02-14T12:06:36;99938.47;;;18.70;33.92
15670;BME280;18524;45.190;5.732;2024-02-14T12:11:27;99925.13;;;18.44;34.38
15670;BME280;18524;45.190;5.732;2024-02-14T12:16:22;99928.19;;;18.58;34.65
15670;BME280;18524;45.190;5.732;2024-02-14T12:21:13;99926.75;;;19.15;34.20
15670;BME280;18524;45.190;5.732;2024-02-14T12:26:04;99922.59;;;19.13;34.75
15670;BME280;18524;45.190;5.732;2024-02-14T12:30:54;99922.28;;;18.90;34.92
15670;BME280;18524;45.190;5.732;2024-02-14T12:35:48;99917.09;;;18.80;33.89
15670;BME280;18524;45.190;5.732;2024-02-14T12:40:39;99903.00;;;18.88;33.35
15670;BME280;18524;45.190;5.732;2024-02-14T12:45:34;99894.56;;;18.92;35.43
15670;BME280;18524;45.190;5.732;2024-02-14T12:50:25;99883.34;;;18.55;32.86
15670;BME280;18524;45.190;5.732;2024-02-14T12:55:16;99889.25;;;18.40;33.44
15670;BME280;18524;45.190;5.732;2024-02-14T13:00:06;99886.91;;;18.37;32.95
15670;BME280;18524;45.190;5.732;2024-02-14T13:04:58;99879.25;;;18.60;33.56
15670;BME280;18524;45.190;5.732;2024-02-14T13:09:49;99867.06;;;18.24;32.32
15670;BME280;18524;45.190;5.732;2024-02-14T13:14:39;99871.53;;;18.23;32.79
15670;BME280;18524;45.190;5.732;2024-02-14T13:19:30;99864.19;;;18.43;33.37
15670;BME280;18524;45.190;5.732;2024-02-14T13:24:20;99846.44;;;18.43;30.96
15670;BME280;18524;45.190;5.732;2024-02-14T13:29:11;99850.38;;;18.39;31.43
15670;BME280;18524;45.190;5.732;2024-02-14T13:34:01;99856.09;;;18.53;32.10
15670;BME280;18524;45.190;5.732;2024-02-14T13:38:53;99863.72;;;18.48;31.48
15670;BME280;18524;45.190;5.732;2024-02-14T13:43:44;99848.91;;;18.45;30.64
15670;BME280;18524;45.190;5.732;2024-02-14T13:48:34;99837.81;;;18.50;30.98
15670;BME280;18524;45.190;5.732;2024-02-14T13:53:25;99837.78;;;18.41;30.99
15670;BME280;18524;45.190;5.732;2024-02-14T13:58:15;99844.38;;;18.11;33.29
15670;BME280;18524;45.190;5.732;2024-02-14T14:03:07;99851.66;;;18.27;33.40
15670;BME280;18524;45.190;5.732;2024-02-14T14:07:57;99856.94;;;18.27;33.19
15670;BME280;18524;45.190;5.732;2024-02-14T14:12:49;99846.50;;;18.26;36.22
15670;BME280;18524;45.190;5.732;2024-02-14T14:17:39;99836.41;;;18.11;34.19
15670;BME280;18524;45.190;5.732;2024-02-14T14:22:30;99843.63;;;17.84;34.02
15670;BME280;18524;45.190;5.732;2024-02-14T14:27:20;99845.94;;;17.96;34.65
15670;BME280;18524;45.190;5.732;2024-02-14T14:32:11;99843.19;;;18.06;35.98
15670;BME280;18524;45.190;5.732;2024-02-14T14:37:02;99837.56;;;18.09;35.56
15670;BME280;18524;45.190;5.732;2024-02-14T14:41:52;99842.91;;;17.91;34.96
15670;BME280;18524;45.190;5.732;2024-02-14T14:46:48;99838.91;;;18.13;36.12
15670;BME280;18524;45.190;5.732;2024-02-14T14:51:40;99833.13;;;17.92;34.26
15670;BME280;18524;45.190;5.732;2024-02-14T14:56:30;99840.47;;;17.80;33.77
15670;BME280;18524;45.190;5.732;2024-02-14T15:01:21;99840.25;;;17.73;34.13
15670;BME280;18524;45.190;5.732;2024-02-14T15:06:11;99839.16;;;17.66;33.53
15670;BME280;18524;45.190;5.732;2024-02-14T15:11:03;99837.41;;;17.57;33.76
15670;BME280;18524;45.190;5.732;2024-02-14T15:15:54;99827.41;;;17.51;33.22
15670;BME280;18524;45.190;5.732;2024-02-14T15:20:45;99830.50;;;17.46;33.54
15670;BME280;18524;45.190;5.732;2024-02-14T15:25:35;99826.88;;;17.47;32.78
15670;BME280;18524;45.190;5.732;2024-02-14T15:30:26;99828.56;;;17.48;33.78
15670;BME280;18524;45.190;5.732;2024-02-14T15:35:36;99817.31;;;17.37;32.43
15670;BME280;18524;45.190;5.732;2024-02-14T15:40:26;99809.44;;;17.45;32.44
15670;BME280;18524;45.190;5.732;2024-02-14T15:45:17;99802.91;;;17.39;32.75
15670;BME280;18524;45.190;5.732;2024-02-14T15:50:08;99803.44;;;17.43;32.82
15670;BME280;18524;45.190;5.732;2024-02-14T15:54:58;99801.72;;;17.34;32.66
15670;BME280;18524;45.190;5.732;2024-02-14T15:59:48;99795.72;;;17.14;33.44
15670;BME280;18524;45.190;5.732;2024-02-14T16:04:39;99793.97;;;17.23;33.53
15670;BME280;18524;45.190;5.732;2024-02-14T16:09:30;99794.47;;;17.08;34.38
15670;BME280;18524;45.190;5.732;2024-02-14T16:14:20;99790.75;;;17.01;34.96
15670;BME280;18524;45.190;5.732;2024-02-14T16:19:10;99778.88;;;17.05;35.73
15670;BME280;18524;45.190;5.732;2024-02-14T16:24:01;99783.16;;;16.88;36.40
15670;BME280;18524;45.190;5.732;2024-02-14T16:28:51;99777.56;;;16.92;36.73
15670;BME280;18524;45.190;5.732;2024-02-14T16:33:42;99780.28;;;16.82;36.83
15670;BME280;18524;45.190;5.732;2024-02-14T16:38:33;99766.19;;;16.81;36.74
15670;BME280;18524;45.190;5.732;2024-02-14T16:43:23;99767.34;;;16.69;36.96
15670;BME280;18524;45.190;5.732;2024-02-14T16:48:14;99778.84;;;16.50;36.89
15670;BME280;18524;45.190;5.732;2024-02-14T16:53:05;99781.41;;;16.42;40.46
15670;BME280;18524;45.190;5.732;2024-02-14T16:57:55;99782.53;;;16.30;42.08
15670;BME280;18524;45.190;5.732;2024-02-14T17:02:47;99787.72;;;16.22;43.59
15670;BME280;18524;45.190;5.732;2024-02-14T17:07:37;99792.47;;;16.18;45.52
15670;BME280;18524;45.190;5.732;2024-02-14T17:12:28;99795.44;;;16.06;46.14
15670;BME280;18524;45.190;5.732;2024-02-14T17:17:20;99794.59;;;15.95;45.32
15670;BME280;18524;45.190;5.732;2024-02-14T17:22:11;99793.63;;;15.97;47.57
15670;BME280;18524;45.190;5.732;2024-02-14T17:27:03;99803.53;;;15.85;46.31
15670;BME280;18524;45.190;5.732;2024-02-14T17:31:53;99805.66;;;15.62;45.09
15670;BME280;18524;45.190;5.732;2024-02-14T17:36:43;99816.03;;;15.54;45.72
15670;BME280;18524;45.190;5.732;2024-02-14T17:41:34;99811.28;;;15.48;45.24
15670;BME280;18524;45.190;5.732;2024-02-14T17:46:24;99815.34;;;15.42;47.20
15670;BME280;18524;45.190;5.732;2024-02-14T17:51:15;99810.47;;;15.38;47.90
15670;BME280;18524;45.190;5.732;2024-02-14T17:56:06;99820.88;;;15.29;50.23
15670;BME280;18524;45.190;5.732;2024-02-14T18:00:57;99824.59;;;15.08;49.33
15670;BME280;18524;45.190;5.732;2024-02-14T18:05:48;99826.25;;;14.99;52.07
15670;BME280;18524;45.190;5.732;2024-02-14T18:10:38;99832.38;;;14.99;50.88
15670;BME280;18524;45.190;5.732;2024-02-14T18:15:31;99837.75;;;14.88;49.95
15670;BME280;18524;45.190;5.732;2024-02-14T18:20:21;99850.53;;;14.53;50.41
15670;BME280;18524;45.190;5.732;2024-02-14T18:25:12;99853.59;;;14.37;51.22
15670;BME280;18524;45.190;5.732;2024-02-14T18:30:02;99867.81;;;14.25;51.59
15670;BME280;18524;45.190;5.732;2024-02-14T18:34:53;99859.13;;;14.34;52.88
15670;BME280;18524;45.190;5.732;2024-02-14T18:39:44;99861.72;;;14.24;52.23
15670;BME280;18524;45.190;5.732;2024-02-14T18:44:34;99861.88;;;14.12;54.00
15670;BME280;18524;45.190;5.732;2024-02-14T18:49:24;99871.03;;;14.07;53.81
15670;BME280;18524;45.190;5.732;2024-02-14T18:54:15;99865.34;;;13.91;54.49
15670;BME280;18524;45.190;5.732;2024-02-14T18:59:05;99866.38;;;13.79;54.83
15670;BME280;18524;45.190;5.732;2024-02-14T19:03:56;99868.19;;;13.79;58.87
15670;BME280;18524;45.190;5.732;2024-02-14T19:08:48;99861.72;;;13.71;57.51
15670;BME280;18524;45.190;5.732;2024-02-14T19:13:40;99868.28;;;13.45;58.69
15670;BME280;18524;45.190;5.732;2024-02-14T19:18:31;99860.78;;;13.61;62.67
15670;BME280;18524;45.190;5.732;2024-02-14T19:23:21;99865.19;;;13.72;58.84
15670;BME280;18524;45.190;5.732;2024-02-14T19:28:12;99861.88;;;13.59;59.99
15670;BME280;18524;45.190;5.732;2024-02-14T19:33:05;99858.84;;;13.42;59.82
15670;BME280;18524;45.190;5.732;2024-02-14T19:37:55;99862.44;;;13.41;62.56
15670;BME280;18524;45.190;5.732;2024-02-14T19:42:46;99860.50;;;13.32;61.22
15670;BME280;18524;45.190;5.732;2024-02-14T19:47:36;99863.19;;;13.10;63.81
15670;BME280;18524;45.190;5.732;2024-02-14T19:52:28;99868.19;;;13.24;66.46
15670;BME280;18524;45.190;5.732;2024-02-14T19:57:20;99868.31;;;13.23;66.92
15670;BME280;18524;45.190;5.732;2024-02-14T20:02:11;99870.00;;;13.24;64.45
15670;BME280;18524;45.190;5.732;2024-02-14T20:07:03;99869.88;;;13.14;65.31
15670;BME280;18524;45.190;5.732;2024-02-14T20:11:53;99871.69;;;13.02;64.75
15670;BME280;18524;45.190;5.732;2024-02-14T20:16:43;99870.59;;;13.05;65.64
15670;BME280;18524;45.190;5.732;2024-02-14T20:21:34;99876.31;;;12.99;66.21
15670;BME280;18524;45.190;5.732;2024-02-14T20:26:32;99886.38;;;12.94;67.01
15670;BME280;18524;45.190;5.732;2024-02-14T20:31:23;99885.66;;;12.92;70.16
15670;BME280;18524;45.190;5.732;2024-02-14T20:36:13;99883.03;;;12.92;68.14
15670;BME280;18524;45.190;5.732;2024-02-14T20:41:04;99889.41;;;12.67;66.55
15670;BME280;18524;45.190;5.732;2024-02-14T20:45:54;99888.50;;;12.33;67.28
15670;BME280;18524;45.190;5.732;2024-02-14T20:50:44;99879.28;;;11.92;69.14
15670;BME280;18524;45.190;5.732;2024-02-14T20:55:35;99877.31;;;12.07;71.36
15670;BME280;18524;45.190;5.732;2024-02-14T21:00:25;99881.00;;;12.04;70.92
15670;BME280;18524;45.190;5.732;2024-02-14T21:05:16;99875.66;;;11.82;69.25
15670;BME280;18524;45.190;5.732;2024-02-14T21:10:07;99874.31;;;12.00;70.32
15670;BME280;18524;45.190;5.732;2024-02-14T21:15:00;99870.69;;;11.90;70.37
15670;BME280;18524;45.190;5.732;2024-02-14T21:19:50;99872.78;;;11.85;72.23
15670;BME280;18524;45.190;5.732;2024-02-14T21:24:40;99874.31;;;12.00;72.22
15670;BME280;18524;45.190;5.732;2024-02-14T21:29:31;99874.09;;;11.79;69.97
15670;BME280;18524;45.190;5.732;2024-02-14T21:34:23;99872.59;;;11.75;70.91
15670;BME280;18524;45.190;5.732;2024-02-14T21:39:13;99863.28;;;11.71;70.28
15670;BME280;18524;45.190;5.732;2024-02-14T21:44:07;99858.38;;;11.67;72.32
15670;BME280;18524;45.190;5.732;2024-02-14T21:48:59;99856.13;;;11.73;75.84
15670;BME280;18524;45.190;5.732;2024-02-14T21:53:52;99860.03;;;11.68;73.21
15670;BME280;18524;45.190;5.732;2024-02-14T21:58:42;99864.47;;;11.67;74.42
15670;BME280;18524;45.190;5.732;2024-02-14T22:03:32;99871.03;;;11.73;75.34
15670;BME280;18524;45.190;5.732;2024-02-14T22:08:23;99870.31;;;11.47;74.09
15670;BME280;18524;45.190;5.732;2024-02-14T22:13:13;99873.66;;;11.49;79.20
15670;BME280;18524;45.190;5.732;2024-02-14T22:18:04;99870.19;;;11.48;73.93
15670;BME280;18524;45.190;5.732;2024-02-14T22:22:56;99857.28;;;11.21;75.11
15670;BME280;18524;45.190;5.732;2024-02-14T22:27:47;99855.16;;;11.26;78.66
15670;BME280;18524;45.190;5.732;2024-02-14T22:32:37;99851.19;;;11.21;80.55
15670;BME280;18524;45.190;5.732;2024-02-14T22:37:28;99848.63;;;11.32;78.88
15670;BME280;18524;45.190;5.732;2024-02-14T22:42:19;99840.47;;;11.24;77.19
15670;BME280;18524;45.190;5.732;2024-02-14T22:47:09;99834.78;;;11.30;77.78
15670;BME280;18524;45.190;5.732;2024-02-14T22:52:00;99836.19;;;11.23;77.44
15670;BME280;18524;45.190;5.732;2024-02-14T22:56:50;99832.16;;;10.93;78.22
15670;BME280;18524;45.190;5.732;2024-02-14T23:01:41;99825.56;;;10.88;78.57
15670;BME280;18524;45.190;5.732;2024-02-14T23:06:31;99825.75;;;10.98;83.78
15670;BME280;18524;45.190;5.732;2024-02-14T23:11:22;99831.03;;;11.21;80.02
15670;BME280;18524;45.190;5.732;2024-02-14T23:16:16;99824.56;;;11.02;78.78
15670;BME280;18524;45.190;5.732;2024-02-14T23:21:06;99831.19;;;10.45;81.36
15670;BME280;18524;45.190;5.732;2024-02-14T23:25:57;99838.53;;;10.53;81.85
15670;BME280;18524;45.190;5.732;2024-02-14T23:30:47;99831.06;;;10.21;80.91
15670;BME280;18524;45.190;5.732;2024-02-14T23:35:38;99832.78;;;9.83;82.24
15670;BME280;18524;45.190;5.732;2024-02-14T23:40:29;99833.97;;;9.64;84.13
15670;BME280;18524;45.190;5.732;2024-02-14T23:45:20;99828.16;;;9.47;86.50
15670;BME280;18524;45.190;5.732;2024-02-14T23:50:10;99828.88;;;9.36;87.26
15670;BME280;18524;45.190;5.732;2024-02-14T23:55:02;99829.22;;;9.44;87.28
15670;BME280;18524;45.190;5.732;2024-02-14T23:59:53;99823.38;;;9.53;85.42
